sensor_id;sensor_type;location;lat;lon;timestamp;temperature;humidity
76120;DHT22;64852;48.092;-1.640;2023-04-01T00:01:44;11.60;99.90
76120;DHT22;64852;48.092;-1.640;2023-04-01T00:04:10;11.50;99.90
76120;DHT22;64852;48.092;-1.640;2023-04-01T00:06:35;11.40;99.90
76120;DHT22;64852;48.092;-1.640;2023-04-01T00:09:01;11.40;99.90
76120;DHT22;64852;48.092;-1.640;2023-04-01T00:11:26;11.40;99.90
76120;DHT22;64852;48.092;-1.640;2023-04-01T00:13:53;11.30;99.90
76120;DHT22;64852;48.092;-1.640;2023-04-01T00:16:18;11.30;99.90
76120;DHT22;64852;48.092;-1.640;2023-04-01T00:18:44;11.30;99.90
76120;DHT22;64852;48.092;-1.640;2023-04-01T00:21:09;11.30;99.90
76120;DHT22;64852;48.092;-1.640;2023-04-01T00:23:35;11.20;99.90
76120;DHT22;64852;48.092;-1.640;2023-04-01T00:26:01;11.30;99.90
76120;DHT22;64852;48.092;-1.640;2023-04-01T00:28:27;11.20;99.90
76120;DHT22;64852;48.092;-1.640;2023-04-01T00:30:53;11.20;99.90
76120;DHT22;64852;48.092;-1.640;2023-04-01T00:33:19;11.20;99.90
76120;DHT22;64852;48.092;-1.640;2023-04-01T00:35:45;11.20;99.90
76120;DHT22;64852;48.092;-1.640;2023-04-01T00:38:11;11.10;99.90
76120;DHT22;64852;48.092;-1.640;2023-04-01T00:40:38;11.20;99.90
76120;DHT22;64852;48.092;-1.640;2023-04-01T00:43:08;11.10;99.90
76120;DHT22;64852;48.092;-1.640;2023-04-01T00:45:37;11.20;99.90
76120;DHT22;64852;48.092;-1.640;2023-04-01T00:48:05;11.10;99.90
76120;DHT22;64852;48.092;-1.640;2023-04-01T00:50:31;11.20;99.90
76120;DHT22;64852;48.092;-1.640;2023-04-01T00:52:57;11.10;99.90
76120;DHT22;64852;48.092;-1.640;2023-04-01T00:55:24;11.30;99.90
76120;DHT22;64852;48.092;-1.640;2023-04-01T00:57:51;11.20;99.90
76120;DHT22;64852;48.092;-1.640;2023-04-01T01:00:18;11.20;99.90
76120;DHT22;64852;48.092;-1.640;2023-04-01T01:02:44;11.10;99.90
76120;DHT22;64852;48.092;-1.640;2023-04-01T01:05:13;11.20;99.90
76120;DHT22;64852;48.092;-1.640;2023-04-01T01:10:19;11.20;99.90
76120;DHT22;64852;48.092;-1.640;2023-04-01T01:15:31;11.20;99.90
76120;DHT22;64852;48.092;-1.640;2023-04-01T01:30:41;11.10;99.90
76120;DHT22;64852;48.092;-1.640;2023-04-01T01:35:53;11.10;99.90
76120;DHT22;64852;48.092;-1.640;2023-04-01T01:38:21;11.10;99.90
76120;DHT22;64852;48.092;-1.640;2023-04-01T01:40:48;11.10;99.90
76120;DHT22;64852;48.092;-1.640;2023-04-01T01:43:17;11.20;99.90
76120;DHT22;64852;48.092;-1.640;2023-04-01T01:45:46;11.20;99.90
76120;DHT22;64852;48.092;-1.640;2023-04-01T01:48:12;11.20;99.90
76120;DHT22;64852;48.092;-1.640;2023-04-01T01:50:38;11.20;99.90
76120;DHT22;64852;48.092;-1.640;2023-04-01T01:53:06;11.20;99.90
76120;DHT22;64852;48.092;-1.640;2023-04-01T01:55:33;11.20;99.90
76120;DHT22;64852;48.092;-1.640;2023-04-01T01:58:00;11.10;99.90
76120;DHT22;64852;48.092;-1.640;2023-04-01T02:00:27;11.10;99.90
76120;DHT22;64852;48.092;-1.640;2023-04-01T02:02:53;11.10;99.90
76120;DHT22;64852;48.092;-1.640;2023-04-01T02:05:23;11.10;99.90
76120;DHT22;64852;48.092;-1.640;2023-04-01T02:08:01;11.00;99.90
76120;DHT22;64852;48.092;-1.640;2023-04-01T02:10:28;11.00;99.90
76120;DHT22;64852;48.092;-1.640;2023-04-01T02:12:56;11.00;99.90
76120;DHT22;64852;48.092;-1.640;2023-04-01T02:15:23;11.00;99.90
76120;DHT22;64852;48.092;-1.640;2023-04-01T02:17:50;11.10;99.90
76120;DHT22;64852;48.092;-1.640;2023-04-01T02:20:17;11.10;99.90
76120;DHT22;64852;48.092;-1.640;2023-04-01T02:22:46;11.00;99.90
76120;DHT22;64852;48.092;-1.640;2023-04-01T02:25:13;11.00;99.90
76120;DHT22;64852;48.092;-1.640;2023-04-01T02:27:39;11.10;99.90
76120;DHT22;64852;48.092;-1.640;2023-04-01T02:30:05;11.00;99.90
76120;DHT22;64852;48.092;-1.640;2023-04-01T02:32:31;11.00;99.90
76120;DHT22;64852;48.092;-1.640;2023-04-01T02:34:58;11.00;99.90
76120;DHT22;64852;48.092;-1.640;2023-04-01T02:37:25;10.90;99.90
76120;DHT22;64852;48.092;-1.640;2023-04-01T02:39:50;10.90;99.90
76120;DHT22;64852;48.092;-1.640;2023-04-01T02:42:16;10.90;99.90
76120;DHT22;64852;48.092;-1.640;2023-04-01T02:44:41;10.90;99.90
76120;DHT22;64852;48.092;-1.640;2023-04-01T02:47:07;10.90;99.90
76120;DHT22;64852;48.092;-1.640;2023-04-01T02:49:32;11.00;99.90
76120;DHT22;64852;48.092;-1.640;2023-04-01T02:51:58;10.80;99.90
76120;DHT22;64852;48.092;-1.640;2023-04-01T02:54:23;11.10;99.90
76120;DHT22;64852;48.092;-1.640;2023-04-01T02:56:49;10.90;99.90
76120;DHT22;64852;48.092;-1.640;2023-04-01T02:59:14;10.90;99.90
76120;DHT22;64852;48.092;-1.640;2023-04-01T03:01:40;10.90;99.90
76120;DHT22;64852;48.092;-1.640;2023-04-01T03:04:05;10.80;99.90
76120;DHT22;64852;48.092;-1.640;2023-04-01T03:06:31;10.90;99.90
76120;DHT22;64852;48.092;-1.640;2023-04-01T03:08:56;10.80;99.90
76120;DHT22;64852;48.092;-1.640;2023-04-01T03:11:22;10.80;99.90
76120;DHT22;64852;48.092;-1.640;2023-04-01T03:13:48;10.80;99.90
76120;DHT22;64852;48.092;-1.640;2023-04-01T03:16:14;10.70;99.90
76120;DHT22;64852;48.092;-1.640;2023-04-01T03:18:39;10.70;99.90
76120;DHT22;64852;48.092;-1.640;2023-04-01T03:23:40;10.70;99.90
76120;DHT22;64852;48.092;-1.640;2023-04-01T03:26:05;10.80;99.90
76120;DHT22;64852;48.092;-1.640;2023-04-01T03:28:31;10.80;99.90
76120;DHT22;64852;48.092;-1.640;2023-04-01T03:30:56;10.80;99.90
76120;DHT22;64852;48.092;-1.640;2023-04-01T03:33:22;10.80;99.90
76120;DHT22;64852;48.092;-1.640;2023-04-01T03:35:47;10.70;99.90
76120;DHT22;64852;48.092;-1.640;2023-04-01T03:38:13;10.70;99.90
76120;DHT22;64852;48.092;-1.640;2023-04-01T03:40:41;10.60;99.90
76120;DHT22;64852;48.092;-1.640;2023-04-01T03:43:07;10.70;99.90
76120;DHT22;64852;48.092;-1.640;2023-04-01T03:45:35;10.70;99.90
76120;DHT22;64852;48.092;-1.640;2023-04-01T03:48:00;10.80;99.90
76120;DHT22;64852;48.092;-1.640;2023-04-01T03:50:26;10.70;99.90
76120;DHT22;64852;48.092;-1.640;2023-04-01T03:52:51;10.70;99.90
76120;DHT22;64852;48.092;-1.640;2023-04-01T03:55:17;10.70;99.90
76120;DHT22;64852;48.092;-1.640;2023-04-01T03:57:43;10.70;99.90
76120;DHT22;64852;48.092;-1.640;2023-04-01T04:00:09;10.90;99.90
76120;DHT22;64852;48.092;-1.640;2023-04-01T04:02:34;10.70;99.90
76120;DHT22;64852;48.092;-1.640;2023-04-01T04:05:01;10.80;99.90
76120;DHT22;64852;48.092;-1.640;2023-04-01T04:07:26;10.70;99.90
76120;DHT22;64852;48.092;-1.640;2023-04-01T04:09:51;10.80;99.90
76120;DHT22;64852;48.092;-1.640;2023-04-01T04:12:17;10.80;99.90
76120;DHT22;64852;48.092;-1.640;2023-04-01T04:14:42;10.80;99.90
76120;DHT22;64852;48.092;-1.640;2023-04-01T04:17:10;10.80;99.90
76120;DHT22;64852;48.092;-1.640;2023-04-01T04:19:38;10.80;99.90
76120;DHT22;64852;48.092;-1.640;2023-04-01T04:22:04;10.90;99.90
76120;DHT22;64852;48.092;-1.640;2023-04-01T04:24:30;10.90;99.90
76120;DHT22;64852;48.092;-1.640;2023-04-01T04:26:55;10.90;99.90
76120;DHT22;64852;48.092;-1.640;2023-04-01T04:29:21;10.90;99.90
76120;DHT22;64852;48.092;-1.640;2023-04-01T04:31:47;10.90;99.90
76120;DHT22;64852;48.092;-1.640;2023-04-01T04:34:13;10.90;99.90
76120;DHT22;64852;48.092;-1.640;2023-04-01T04:36:38;10.90;99.90
76120;DHT22;64852;48.092;-1.640;2023-04-01T04:39:04;11.00;99.90
76120;DHT22;64852;48.092;-1.640;2023-04-01T04:41:30;11.00;99.90
76120;DHT22;64852;48.092;-1.640;2023-04-01T04:43:56;10.90;99.90
76120;DHT22;64852;48.092;-1.640;2023-04-01T04:46:21;10.90;99.90
76120;DHT22;64852;48.092;-1.640;2023-04-01T04:48:47;10.90;99.90
76120;DHT22;64852;48.092;-1.640;2023-04-01T04:51:14;10.80;99.90
76120;DHT22;64852;48.092;-1.640;2023-04-01T04:53:40;10.80;99.90
76120;DHT22;64852;48.092;-1.640;2023-04-01T04:56:05;10.80;99.90
76120;DHT22;64852;48.092;-1.640;2023-04-01T04:58:31;10.80;99.90
76120;DHT22;64852;48.092;-1.640;2023-04-01T05:00:57;10.80;99.90
76120;DHT22;64852;48.092;-1.640;2023-04-01T05:03:22;10.80;99.90
76120;DHT22;64852;48.092;-1.640;2023-04-01T05:05:49;10.80;99.90
76120;DHT22;64852;48.092;-1.640;2023-04-01T05:08:14;10.70;99.90
76120;DHT22;64852;48.092;-1.640;2023-04-01T05:10:40;10.70;99.90
76120;DHT22;64852;48.092;-1.640;2023-04-01T05:13:05;10.60;99.90
76120;DHT22;64852;48.092;-1.640;2023-04-01T05:15:31;10.60;99.90
76120;DHT22;64852;48.092;-1.640;2023-04-01T05:17:57;10.60;99.90
76120;DHT22;64852;48.092;-1.640;2023-04-01T05:20:22;10.60;99.90
76120;DHT22;64852;48.092;-1.640;2023-04-01T05:22:48;10.50;99.90
76120;DHT22;64852;48.092;-1.640;2023-04-01T05:25:13;10.50;99.90
76120;DHT22;64852;48.092;-1.640;2023-04-01T05:27:39;10.50;99.90
76120;DHT22;64852;48.092;-1.640;2023-04-01T05:30:05;10.40;99.90
76120;DHT22;64852;48.092;-1.640;2023-04-01T05:32:31;10.40;99.90
76120;DHT22;64852;48.092;-1.640;2023-04-01T05:34:56;10.40;99.90
76120;DHT22;64852;48.092;-1.640;2023-04-01T05:37:22;10.30;99.90
76120;DHT22;64852;48.092;-1.640;2023-04-01T05:39:48;10.30;99.90
76120;DHT22;64852;48.092;-1.640;2023-04-01T05:42:13;10.30;99.90
76120;DHT22;64852;48.092;-1.640;2023-04-01T05:44:40;10.20;99.90
76120;DHT22;64852;48.092;-1.640;2023-04-01T05:47:06;10.20;99.90
76120;DHT22;64852;48.092;-1.640;2023-04-01T05:49:32;10.30;99.90
76120;DHT22;64852;48.092;-1.640;2023-04-01T05:51:58;10.20;99.90
76120;DHT22;64852;48.092;-1.640;2023-04-01T05:54:23;10.20;99.90
76120;DHT22;64852;48.092;-1.640;2023-04-01T05:56:49;10.20;99.90
76120;DHT22;64852;48.092;-1.640;2023-04-01T05:59:14;10.20;99.90
76120;DHT22;64852;48.092;-1.640;2023-04-01T06:01:40;10.20;99.90
76120;DHT22;64852;48.092;-1.640;2023-04-01T06:04:06;10.20;99.90
76120;DHT22;64852;48.092;-1.640;2023-04-01T06:06:32;10.10;99.90
76120;DHT22;64852;48.092;-1.640;2023-04-01T06:08:58;10.20;99.90
76120;DHT22;64852;48.092;-1.640;2023-04-01T06:11:30;10.20;99.90
76120;DHT22;64852;48.092;-1.640;2023-04-01T06:19:05;10.20;99.90
76120;DHT22;64852;48.092;-1.640;2023-04-01T06:21:36;10.30;99.90
76120;DHT22;64852;48.092;-1.640;2023-04-01T06:24:47;10.30;99.90
76120;DHT22;64852;48.092;-1.640;2023-04-01T06:40:18;10.20;99.90
76120;DHT22;64852;48.092;-1.640;2023-04-01T06:43:10;10.30;99.90
76120;DHT22;64852;48.092;-1.640;2023-04-01T06:50:54;10.20;99.90
76120;DHT22;64852;48.092;-1.640;2023-04-01T06:55:48;10.30;99.90
76120;DHT22;64852;48.092;-1.640;2023-04-01T06:58:25;10.30;99.90
76120;DHT22;64852;48.092;-1.640;2023-04-01T07:00:56;10.30;99.90
76120;DHT22;64852;48.092;-1.640;2023-04-01T07:08:51;10.30;99.90
76120;DHT22;64852;48.092;-1.640;2023-04-01T07:11:25;10.30;99.90
76120;DHT22;64852;48.092;-1.640;2023-04-01T07:13:53;10.30;99.90
76120;DHT22;64852;48.092;-1.640;2023-04-01T07:21:29;10.50;99.90
76120;DHT22;64852;48.092;-1.640;2023-04-01T07:23:56;10.50;99.90
76120;DHT22;64852;48.092;-1.640;2023-04-01T07:26:25;10.50;99.90
76120;DHT22;64852;48.092;-1.640;2023-04-01T07:28:52;10.60;99.90
76120;DHT22;64852;48.092;-1.640;2023-04-01T07:31:20;10.60;99.90
76120;DHT22;64852;48.092;-1.640;2023-04-01T07:34:03;10.60;99.90
76120;DHT22;64852;48.092;-1.640;2023-04-01T07:41:51;10.70;99.90
76120;DHT22;64852;48.092;-1.640;2023-04-01T07:46:50;10.80;99.90
76120;DHT22;64852;48.092;-1.640;2023-04-01T07:59:24;10.90;99.90
76120;DHT22;64852;48.092;-1.640;2023-04-01T08:22:27;11.60;99.90
76120;DHT22;64852;48.092;-1.640;2023-04-01T08:24:54;11.60;99.90
76120;DHT22;64852;48.092;-1.640;2023-04-01T08:30:04;11.60;99.90
76120;DHT22;64852;48.092;-1.640;2023-04-01T08:35:01;11.80;99.90
76120;DHT22;64852;48.092;-1.640;2023-04-01T08:37:29;11.70;99.90
76120;DHT22;64852;48.092;-1.640;2023-04-01T08:39:57;11.80;99.90
76120;DHT22;64852;48.092;-1.640;2023-04-01T08:50:19;11.70;99.90
76120;DHT22;64852;48.092;-1.640;2023-04-01T08:52:58;12.20;99.90
76120;DHT22;64852;48.092;-1.640;2023-04-01T09:03:10;11.90;99.90
76120;DHT22;64852;48.092;-1.640;2023-04-01T09:13:36;12.10;99.90
76120;DHT22;64852;48.092;-1.640;2023-04-01T09:16:12;12.00;99.90
76120;DHT22;64852;48.092;-1.640;2023-04-01T09:24:20;12.30;99.90
76120;DHT22;64852;48.092;-1.640;2023-04-01T09:32:07;12.40;99.90
76120;DHT22;64852;48.092;-1.640;2023-04-01T09:37:17;12.60;99.90
76120;DHT22;64852;48.092;-1.640;2023-04-01T09:39:51;12.60;99.90
76120;DHT22;64852;48.092;-1.640;2023-04-01T09:42:26;12.60;99.90
76120;DHT22;64852;48.092;-1.640;2023-04-01T09:44:59;12.70;99.90
76120;DHT22;64852;48.092;-1.640;2023-04-01T09:47:42;12.60;99.90
76120;DHT22;64852;48.092;-1.640;2023-04-01T10:13:43;12.90;99.90
76120;DHT22;64852;48.092;-1.640;2023-04-01T10:23:54;13.20;99.90
76120;DHT22;64852;48.092;-1.640;2023-04-01T10:31:42;13.10;99.90
76120;DHT22;64852;48.092;-1.640;2023-04-01T10:36:58;13.30;99.90
76120;DHT22;64852;48.092;-1.640;2023-04-01T10:39:32;13.40;99.90
76120;DHT22;64852;48.092;-1.640;2023-04-01T10:54:49;13.40;99.90
76120;DHT22;64852;48.092;-1.640;2023-04-01T11:32:42;14.80;99.90
76120;DHT22;64852;48.092;-1.640;2023-04-01T11:35:19;14.60;99.90
76120;DHT22;64852;48.092;-1.640;2023-04-01T11:45:49;13.80;99.90
76120;DHT22;64852;48.092;-1.640;2023-04-01T11:48:19;13.60;99.90
76120;DHT22;64852;48.092;-1.640;2023-04-01T11:53:33;13.60;99.90
76120;DHT22;64852;48.092;-1.640;2023-04-01T12:03:37;14.50;99.90
76120;DHT22;64852;48.092;-1.640;2023-04-01T12:06:23;14.30;99.90
76120;DHT22;64852;48.092;-1.640;2023-04-01T12:14:36;15.10;99.90
76120;DHT22;64852;48.092;-1.640;2023-04-01T12:19:43;15.60;99.90
76120;DHT22;64852;48.092;-1.640;2023-04-01T12:35:03;18.70;99.90
76120;DHT22;64852;48.092;-1.640;2023-04-01T12:43:05;19.60;91.40
76120;DHT22;64852;48.092;-1.640;2023-04-01T12:45:35;17.90;99.90
76120;DHT22;64852;48.092;-1.640;2023-04-01T12:56:08;15.20;99.90
76120;DHT22;64852;48.092;-1.640;2023-04-01T13:03:48;16.60;99.90
76120;DHT22;64852;48.092;-1.640;2023-04-01T13:16:26;15.70;93.80
76120;DHT22;64852;48.092;-1.640;2023-04-01T13:18:57;15.30;99.90
76120;DHT22;64852;48.092;-1.640;2023-04-01T13:26:42;14.90;99.90
76120;DHT22;64852;48.092;-1.640;2023-04-01T13:29:16;15.10;99.90
76120;DHT22;64852;48.092;-1.640;2023-04-01T13:42:22;14.90;99.90
76120;DHT22;64852;48.092;-1.640;2023-04-01T13:49:59;16.40;99.90
76120;DHT22;64852;48.092;-1.640;2023-04-01T14:10:25;16.30;99.90
76120;DHT22;64852;48.092;-1.640;2023-04-01T14:12:59;15.90;99.90
76120;DHT22;64852;48.092;-1.640;2023-04-01T14:20:45;19.40;98.70
76120;DHT22;64852;48.092;-1.640;2023-04-01T14:25:55;20.50;73.70
76120;DHT22;64852;48.092;-1.640;2023-04-01T14:28:43;20.90;80.30
76120;DHT22;64852;48.092;-1.640;2023-04-01T14:46:34;17.50;90.00
76120;DHT22;64852;48.092;-1.640;2023-04-01T14:49:17;18.20;99.90
76120;DHT22;64852;48.092;-1.640;2023-04-01T14:51:45;18.50;85.50
76120;DHT22;64852;48.092;-1.640;2023-04-01T14:59:47;17.60;90.20
76120;DHT22;64852;48.092;-1.640;2023-04-01T15:07:17;20.00;99.90
76120;DHT22;64852;48.092;-1.640;2023-04-01T15:30:37;22.00;60.40
76120;DHT22;64852;48.092;-1.640;2023-04-01T15:38:20;21.80;50.30
76120;DHT22;64852;48.092;-1.640;2023-04-01T15:54:06;20.80;47.80
76120;DHT22;64852;48.092;-1.640;2023-04-01T16:01:44;19.50;50.20
76120;DHT22;64852;48.092;-1.640;2023-04-01T16:12:07;17.60;53.10
76120;DHT22;64852;48.092;-1.640;2023-04-01T16:14:52;17.50;54.00
76120;DHT22;64852;48.092;-1.640;2023-04-01T16:20:01;17.20;56.20
76120;DHT22;64852;48.092;-1.640;2023-04-01T16:27:51;16.80;61.50
76120;DHT22;64852;48.092;-1.640;2023-04-01T16:30:26;16.70;62.20
76120;DHT22;64852;48.092;-1.640;2023-04-01T16:33:02;16.60;62.70
76120;DHT22;64852;48.092;-1.640;2023-04-01T16:35:46;16.30;63.30
76120;DHT22;64852;48.092;-1.640;2023-04-01T16:38:26;16.30;65.80
76120;DHT22;64852;48.092;-1.640;2023-04-01T16:41:00;16.20;68.20
76120;DHT22;64852;48.092;-1.640;2023-04-01T16:43:45;16.40;69.50
76120;DHT22;64852;48.092;-1.640;2023-04-01T16:51:52;16.00;74.00
76120;DHT22;64852;48.092;-1.640;2023-04-01T16:56:50;15.80;73.50
76120;DHT22;64852;48.092;-1.640;2023-04-01T16:59:24;15.70;76.40
76120;DHT22;64852;48.092;-1.640;2023-04-01T17:02:02;15.50;78.60
76120;DHT22;64852;48.092;-1.640;2023-04-01T17:12:26;15.70;78.90
76120;DHT22;64852;48.092;-1.640;2023-04-01T17:17:36;15.90;80.50
76120;DHT22;64852;48.092;-1.640;2023-04-01T17:30:35;15.20;84.00
76120;DHT22;64852;48.092;-1.640;2023-04-01T17:41:05;15.00;86.30
76120;DHT22;64852;48.092;-1.640;2023-04-01T17:43:51;14.90;90.10
76120;DHT22;64852;48.092;-1.640;2023-04-01T17:49:00;14.90;91.80
76120;DHT22;64852;48.092;-1.640;2023-04-01T17:51:38;14.90;92.40
76120;DHT22;64852;48.092;-1.640;2023-04-01T17:54:21;14.70;92.90
76120;DHT22;64852;48.092;-1.640;2023-04-01T17:56:54;14.60;95.60
76120;DHT22;64852;48.092;-1.640;2023-04-01T17:59:38;14.50;98.60
76120;DHT22;64852;48.092;-1.640;2023-04-01T18:10:41;14.60;99.90
76120;DHT22;64852;48.092;-1.640;2023-04-01T18:15:40;14.40;99.90
76120;DHT22;64852;48.092;-1.640;2023-04-01T18:18:11;14.20;99.90
76120;DHT22;64852;48.092;-1.640;2023-04-01T18:23:30;14.00;99.90
76120;DHT22;64852;48.092;-1.640;2023-04-01T18:26:08;13.60;99.90
76120;DHT22;64852;48.092;-1.640;2023-04-01T18:28:37;13.80;99.90
76120;DHT22;64852;48.092;-1.640;2023-04-01T18:36:38;13.90;99.90
76120;DHT22;64852;48.092;-1.640;2023-04-01T18:41:42;13.90;99.90
76120;DHT22;64852;48.092;-1.640;2023-04-01T18:44:19;13.90;99.90
76120;DHT22;64852;48.092;-1.640;2023-04-01T18:47:11;13.90;99.90
76120;DHT22;64852;48.092;-1.640;2023-04-01T18:52:21;14.00;99.90
76120;DHT22;64852;48.092;-1.640;2023-04-01T18:55:36;14.10;99.90
76120;DHT22;64852;48.092;-1.640;2023-04-01T18:57:54;14.10;99.90
76120;DHT22;64852;48.092;-1.640;2023-04-01T19:00:32;13.70;99.90
76120;DHT22;64852;48.092;-1.640;2023-04-01T19:05:38;13.90;99.90
76120;DHT22;64852;48.092;-1.640;2023-04-01T19:11:06;13.60;99.90
76120;DHT22;64852;48.092;-1.640;2023-04-01T19:16:07;13.70;99.90
76120;DHT22;64852;48.092;-1.640;2023-04-01T19:19:25;13.80;99.90
76120;DHT22;64852;48.092;-1.640;2023-04-01T19:31:55;13.70;99.90
76120;DHT22;64852;48.092;-1.640;2023-04-01T19:34:26;13.60;99.90
76120;DHT22;64852;48.092;-1.640;2023-04-01T19:36:59;13.70;99.90
76120;DHT22;64852;48.092;-1.640;2023-04-01T19:42:03;13.80;99.90
76120;DHT22;64852;48.092;-1.640;2023-04-01T19:44:41;13.70;99.90
76120;DHT22;64852;48.092;-1.640;2023-04-01T19:47:22;13.70;99.90
76120;DHT22;64852;48.092;-1.640;2023-04-01T19:57:33;13.70;99.90
76120;DHT22;64852;48.092;-1.640;2023-04-01T20:02:30;13.40;99.90
76120;DHT22;64852;48.092;-1.640;2023-04-01T20:04:58;13.40;99.90
76120;DHT22;64852;48.092;-1.640;2023-04-01T20:07:37;13.30;99.90
76120;DHT22;64852;48.092;-1.640;2023-04-01T20:15:23;13.10;99.90
76120;DHT22;64852;48.092;-1.640;2023-04-01T20:17:53;13.20;99.90
76120;DHT22;64852;48.092;-1.640;2023-04-01T20:20:21;13.10;99.90
76120;DHT22;64852;48.092;-1.640;2023-04-01T20:25:40;13.30;99.90
76120;DHT22;64852;48.092;-1.640;2023-04-01T20:43:35;13.20;99.90
76120;DHT22;64852;48.092;-1.640;2023-04-01T20:46:18;13.30;99.90
76120;DHT22;64852;48.092;-1.640;2023-04-01T21:07:20;13.20;99.90
76120;DHT22;64852;48.092;-1.640;2023-04-01T21:25:51;13.20;99.90
76120;DHT22;64852;48.092;-1.640;2023-04-01T21:38:34;13.20;99.90
76120;DHT22;64852;48.092;-1.640;2023-04-01T21:51:26;13.30;99.90
76120;DHT22;64852;48.092;-1.640;2023-04-01T21:59:22;13.10;99.90
76120;DHT22;64852;48.092;-1.640;2023-04-01T22:04:33;13.10;99.90
76120;DHT22;64852;48.092;-1.640;2023-04-01T22:07:23;13.00;99.90
76120;DHT22;64852;48.092;-1.640;2023-04-01T22:10:11;13.00;99.90
76120;DHT22;64852;48.092;-1.640;2023-04-01T22:12:41;12.90;99.90
76120;DHT22;64852;48.092;-1.640;2023-04-01T22:17:48;12.70;99.90
76120;DHT22;64852;48.092;-1.640;2023-04-01T22:31:02;12.50;99.90
76120;DHT22;64852;48.092;-1.640;2023-04-01T22:40:57;12.40;99.90
76120;DHT22;64852;48.092;-1.640;2023-04-01T22:43:45;12.40;99.90
76120;DHT22;64852;48.092;-1.640;2023-04-01T22:46:28;12.30;99.90
76120;DHT22;64852;48.092;-1.640;2023-04-01T22:49:00;12.50;99.90
76120;DHT22;64852;48.092;-1.640;2023-04-01T22:51:45;12.50;99.90
76120;DHT22;64852;48.092;-1.640;2023-04-01T22:54:18;12.40;99.90
76120;DHT22;64852;48.092;-1.640;2023-04-01T22:56:47;12.30;99.90
76120;DHT22;64852;48.092;-1.640;2023-04-01T22:59:19;12.40;99.90
76120;DHT22;64852;48.092;-1.640;2023-04-01T23:01:57;12.40;99.90
76120;DHT22;64852;48.092;-1.640;2023-04-01T23:04:24;12.30;99.90
76120;DHT22;64852;48.092;-1.640;2023-04-01T23:06:55;12.10;99.90
76120;DHT22;64852;48.092;-1.640;2023-04-01T23:09:25;12.20;99.90
76120;DHT22;64852;48.092;-1.640;2023-04-01T23:11:59;12.20;99.90
76120;DHT22;64852;48.092;-1.640;2023-04-01T23:14:35;12.20;99.90
76120;DHT22;64852;48.092;-1.640;2023-04-01T23:24:49;12.00;99.90
76120;DHT22;64852;48.092;-1.640;2023-04-01T23:29:41;12.00;99.90
76120;DHT22;64852;48.092;-1.640;2023-04-01T23:32:41;12.10;99.90
76120;DHT22;64852;48.092;-1.640;2023-04-01T23:34:59;11.90;99.90
76120;DHT22;64852;48.092;-1.640;2023-04-01T23:37:25;11.90;99.90
76120;DHT22;64852;48.092;-1.640;2023-04-01T23:42:20;12.00;99.90
76120;DHT22;64852;48.092;-1.640;2023-04-01T23:45:32;11.90;99.90
76120;DHT22;64852;48.092;-1.640;2023-04-01T23:47:34;11.90;99.90
76120;DHT22;64852;48.092;-1.640;2023-04-01T23:50:01;11.80;99.90
76120;DHT22;64852;48.092;-1.640;2023-04-01T23:52:34;11.90;99.90
76120;DHT22;64852;48.092;-1.640;2023-04-01T23:55:43;11.90;99.90
76120;DHT22;64852;48.092;-1.640;2023-04-01T23:58:23;11.90;99.90
